Wetterdaten: Woche 17.09.12 - 23.09.12 (KW38)
Datum Zeit Temp. A. Feuchte A. Luftdruck Regen Wind Richtung Taupunkt Windchill Windben
17.09.2012 00:00 10,8 C 81 % 1015,8 hPa 0,0 l/m 0,0 km/h N 7,7 C 10,8 C 0,0 km/h
17.09.2012 01:00 9,7 C 83 % 1015,4 hPa 0,0 l/m 0,0 km/h N 6,9 C 9,7 C 0,0 km/h
17.09.2012 02:00 9,2 C 83 % 1015,3 hPa 0,0 l/m 0,0 km/h N 6,4 C 9,2 C 0,0 km/h
17.09.2012 03:00 9,3 C 82 % 1015,1 hPa 0,0 l/m 0,1 km/h N 6,3 C 9,3 C 1,6 km/h
17.09.2012 04:00 8,7 C 82 % 1015,2 hPa 0,0 l/m 0,0 km/h N 5,8 C 8,7 C 0,4 km/h
17.09.2012 05:00 7,8 C 82 % 1015,0 hPa 0,0 l/m 0,0 km/h N 4,9 C 7,8 C 0,0 km/h
17.09.2012 06:00 7,3 C 82 % 1015,1 hPa 0,0 l/m 0,0 km/h N 4,3 C 7,3 C 0,0 km/h
17.09.2012 07:00 7,6 C 80 % 1015,5 hPa 0,0 l/m 0,0 km/h N 4,4 C 7,6 C 0,0 km/h
17.09.2012 08:00 9,9 C 77 % 1015,7 hPa 0,0 l/m 0,0 km/h N 6,1 C 9,9 C 1,2 km/h
17.09.2012 09:00 13,9 C 75 % 1015,8 hPa 0,0 l/m 1,9 km/h N 9,4 C 13,9 C 6,0 km/h
17.09.2012 10:00 19,4 C 57 % 1015,7 hPa 0,0 l/m 4,3 km/h N 10,6 C 19,4 C 12,1 km/h
17.09.2012 11:00 21,6 C 54 % 1015,6 hPa 0,0 l/m 3,5 km/h N 11,9 C 21,6 C 11,7 km/h
17.09.2012 12:00 23,4 C 50 % 1015,4 hPa 0,0 l/m 3,4 km/h N 12,5 C 23,4 C 11,7 km/h
17.09.2012 13:00 24,7 C 45 % 1015,0 hPa 0,0 l/m 3,6 km/h N 12,1 C 24,7 C 11,7 km/h
17.09.2012 14:00 25,0 C 45 % 1014,6 hPa 0,0 l/m 4,3 km/h N 12,1 C 25,0 C 14,9 km/h
17.09.2012 15:00 24,2 C 45 % 1014,4 hPa 0,0 l/m 5,3 km/h N 11,4 C 24,2 C 17,3 km/h
17.09.2012 16:00 23,8 C 46 % 1014,2 hPa 0,0 l/m 4,1 km/h N 11,4 C 23,8 C 13,7 km/h
17.09.2012 17:00 23,5 C 47 % 1014,3 hPa 0,0 l/m 3,1 km/h N 11,3 C 23,5 C 12,5 km/h
17.09.2012 18:00 22,3 C 51 % 1014,4 hPa 0,0 l/m 1,0 km/h N 11,6 C 22,3 C 5,2 km/h
17.09.2012 19:00 19,3 C 61 % 1014,7 hPa 0,0 l/m 0,0 km/h N 11,6 C 19,3 C 0,0 km/h
17.09.2012 20:00 16,4 C 73 % 1015,1 hPa 0,0 l/m 0,0 km/h N 11,5 C 16,4 C 0,0 km/h
17.09.2012 21:00 14,7 C 78 % 1015,2 hPa 0,0 l/m 0,0 km/h N 10,9 C 14,7 C 0,0 km/h
17.09.2012 22:00 13,6 C 82 % 1015,3 hPa 0,0 l/m 0,0 km/h N 10,5 C 13,6 C 0,0 km/h
17.09.2012 23:00 13,1 C 82 % 1015,3 hPa 0,0 l/m 0,0 km/h N 10,2 C 13,1 C 0,0 km/h
18.09.2012 00:00 12,8 C 82 % 1015,2 hPa 0,0 l/m 0,0 km/h N 9,8 C 12,8 C 0,0 km/h
18.09.2012 01:00 12,6 C 82 % 1014,8 hPa 0,0 l/m 0,0 km/h N 9,5 C 12,6 C 1,2 km/h
18.09.2012 02:00 12,1 C 82 % 1014,7 hPa 0,0 l/m 0,0 km/h N 9,0 C 12,1 C 0,0 km/h
18.09.2012 03:00 11,1 C 82 % 1014,5 hPa 0,0 l/m 0,0 km/h N 8,1 C 11,1 C 0,0 km/h
18.09.2012 04:00 10,6 C 82 % 1014,4 hPa 0,0 l/m 0,0 km/h N 7,6 C 10,6 C 0,0 km/h
18.09.2012 05:00 10,1 C 81 % 1014,5 hPa 0,0 l/m 0,0 km/h N 7,0 C 10,1 C 0,0 km/h
18.09.2012 06:00 9,9 C 80 % 1014,7 hPa 0,0 l/m 0,0 km/h N 6,6 C 9,9 C 0,0 km/h
18.09.2012 07:00 9,8 C 79 % 1015,0 hPa 0,0 l/m 0,0 km/h N 6,4 C 9,8 C 0,0 km/h
18.09.2012 08:00 11,6 C 76 % 1015,2 hPa 0,0 l/m 0,0 km/h N 7,6 C 11,6 C 0,8 km/h
18.09.2012 09:00 14,3 C 75 % 1015,1 hPa 0,0 l/m 0,3 km/h N 10,0 C 14,3 C 3,6 km/h
18.09.2012 10:00 17,5 C 78 % 1015,1 hPa 0,0 l/m 1,8 km/h N 13,5 C 17,5 C 8,1 km/h
18.09.2012 11:00 20,4 C 66 % 1014,5 hPa 0,0 l/m 3,4 km/h N 13,7 C 20,4 C 10,1 km/h
18.09.2012 12:00 22,5 C 63 % 1013,9 hPa 0,0 l/m 4,0 km/h N 15,1 C 22,5 C 11,7 km/h
18.09.2012 13:00 24,4 C 58 % 1013,1 hPa 0,0 l/m 3,0 km/h N 15,6 C 24,4 C 10,5 km/h
18.09.2012 14:00 25,7 C 51 % 1012,3 hPa 0,0 l/m 4,3 km/h N 14,7 C 25,7 C 15,3 km/h
18.09.2012 15:00 25,4 C 52 % 1011,8 hPa 0,0 l/m 4,2 km/h N 14,7 C 25,4 C 15,7 km/h
18.09.2012 16:00 25,2 C 50 % 1011,2 hPa 0,0 l/m 5,2 km/h N 14,0 C 25,2 C 16,5 km/h
18.09.2012 17:00 24,9 C 49 % 1011,0 hPa 0,0 l/m 5,8 km/h N 13,4 C 24,8 C 17,3 km/h
18.09.2012 18:00 23,9 C 52 % 1010,8 hPa 0,0 l/m 3,1 km/h N 13,3 C 23,9 C 10,5 km/h
18.09.2012 19:00 21,8 C 59 % 1010,9 hPa 0,0 l/m 0,2 km/h N 13,4 C 21,8 C 2,0 km/h
18.09.2012 20:00 18,5 C 69 % 1011,0 hPa 0,0 l/m 0,1 km/h N 12,7 C 18,5 C 1,6 km/h
18.09.2012 21:00 17,6 C 74 % 1010,5 hPa 0,0 l/m 0,4 km/h N 12,9 C 17,6 C 4,0 km/h
18.09.2012 22:00 17,8 C 73 % 1010,3 hPa 0,0 l/m 0,8 km/h N 12,9 C 17,8 C 5,2 km/h
18.09.2012 23:00 18,1 C 74 % 1009,8 hPa 0,0 l/m 3,9 km/h N 13,3 C 18,1 C 9,3 km/h
19.09.2012 00:00 17,1 C 76 % 1009,4 hPa 0,0 l/m 0,1 km/h N 12,7 C 17,1 C 1,6 km/h
19.09.2012 01:00 15,3 C 80 % 1009,3 hPa 0,0 l/m 0,0 km/h N 11,7 C 15,3 C 0,0 km/h
19.09.2012 02:00 13,8 C 82 % 1009,0 hPa 0,0 l/m 0,0 km/h N 10,8 C 13,8 C 0,0 km/h
19.09.2012 03:00 13,0 C 82 % 1008,7 hPa 0,0 l/m 0,0 km/h N 10,0 C 13,0 C 0,0 km/h
19.09.2012 04:00 12,8 C 81 % 1008,5 hPa 0,0 l/m 0,1 km/h N 9,6 C 12,8 C 1,2 km/h
19.09.2012 05:00 12,9 C 80 % 1008,3 hPa 0,0 l/m 0,2 km/h N 9,5 C 12,9 C 3,2 km/h
19.09.2012 06:00 14,1 C 78 % 1008,3 hPa 0,0 l/m 0,3 km/h N 10,3 C 14,1 C 4,0 km/h
19.09.2012 07:00 15,5 C 81 % 1008,8 hPa 0,0 l/m 0,8 km/h N 12,3 C 15,5 C 6,0 km/h
19.09.2012 08:00 18,1 C 78 % 1009,6 hPa 0,0 l/m 3,3 km/h N 14,3 C 18,1 C 11,6 km/h
19.09.2012 09:00 18,3 C 75 % 1010,6 hPa 0,0 l/m 10,5 km/h N 13,7 C 16,6 C 24,5 km/h
19.09.2012 10:00 17,5 C 78 % 1011,5 hPa 0,0 l/m 7,2 km/h N 13,5 C 17,1 C 18,9 km/h
19.09.2012 11:00 16,9 C 78 % 1012,7 hPa 0,0 l/m 11,3 km/h N 13,1 C 14,7 C 25,0 km/h
19.09.2012 12:00 15,1 C 81 % 1014,3 hPa 1,3 l/m 9,9 km/h N 11,9 C 13,4 C 25,0 km/h
19.09.2012 13:00 14,5 C 82 % 1014,9 hPa 0,0 l/m 7,7 km/h N 11,5 C 13,8 C 20,9 km/h
19.09.2012 14:00 14,1 C 82 % 1015,2 hPa 0,0 l/m 8,4 km/h N 11,1 C 13,0 C 21,7 km/h
19.09.2012 15:00 13,1 C 82 % 1015,8 hPa 0,5 l/m 8,0 km/h N 10,1 C 12,2 C 21,3 km/h
19.09.2012 16:00 12,6 C 83 % 1016,3 hPa 0,3 l/m 6,2 km/h N 9,8 C 12,4 C 16,5 km/h
19.09.2012 17:00 12,5 C 83 % 1017,0 hPa 0,0 l/m 5,9 km/h N 9,7 C 12,5 C 17,3 km/h
19.09.2012 18:00 12,2 C 82 % 1017,6 hPa 0,3 l/m 7,5 km/h N 9,1 C 11,4 C 19,7 km/h
19.09.2012 19:00 11,4 C 80 % 1017,7 hPa 0,3 l/m 5,6 km/h N 8,0 C 11,2 C 15,3 km/h
19.09.2012 20:00 11,1 C 81 % 1017,9 hPa 0,3 l/m 7,9 km/h N 8,0 C 10,1 C 19,3 km/h
19.09.2012 21:00 11,3 C 81 % 1018,5 hPa 0,0 l/m 8,0 km/h N 8,1 C 10,3 C 20,1 km/h
19.09.2012 22:00 11,4 C 79 % 1018,6 hPa 0,0 l/m 8,9 km/h N 7,9 C 9,8 C 21,7 km/h
19.09.2012 23:00 11,2 C 79 % 1019,0 hPa 0,0 l/m 7,0 km/h N 7,7 C 10,6 C 17,7 km/h
20.09.2012 00:00 11,2 C 79 % 1019,0 hPa 0,0 l/m 8,0 km/h N 7,7 C 10,1 C 20,1 km/h
20.09.2012 01:00 11,4 C 78 % 1019,1 hPa 0,0 l/m 8,6 km/h N 7,7 C 9,9 C 20,1 km/h
20.09.2012 02:00 11,2 C 79 % 1019,2 hPa 0,0 l/m 8,5 km/h N 7,6 C 9,8 C 21,7 km/h
20.09.2012 03:00 10,9 C 80 % 1019,4 hPa 0,0 l/m 6,8 km/h N 7,6 C 10,6 C 20,1 km/h
20.09.2012 04:00 11,0 C 79 % 1019,5 hPa 0,0 l/m 10,1 km/h N 7,5 C 8,7 C 24,5 km/h
20.09.2012 05:00 10,8 C 79 % 1020,0 hPa 0,0 l/m 9,4 km/h N 7,3 C 8,9 C 21,3 km/h
20.09.2012 06:00 10,4 C 79 % 1020,6 hPa 0,0 l/m 10,8 km/h N 6,8 C 7,6 C 23,3 km/h
20.09.2012 07:00 10,0 C 78 % 1021,2 hPa 0,0 l/m 8,4 km/h N 6,3 C 8,7 C 22,5 km/h
20.09.2012 08:00 10,2 C 76 % 1021,3 hPa 0,0 l/m 11,8 km/h N 6,2 C 7,0 C 27,8 km/h
20.09.2012 09:00 11,7 C 71 % 1021,8 hPa 0,0 l/m 11,7 km/h N 6,7 C 8,6 C 30,6 km/h
20.09.2012 10:00 13,0 C 66 % 1022,1 hPa 0,0 l/m 11,6 km/h N 6,8 C 10,1 C 29,4 km/h
20.09.2012 11:00 14,0 C 61 % 1022,0 hPa 0,0 l/m 13,4 km/h N 6,5 C 10,5 C 31,4 km/h
20.09.2012 12:00 14,7 C 55 % 1022,2 hPa 0,0 l/m 13,3 km/h N 5,8 C 11,5 C 30,2 km/h
20.09.2012 13:00 15,3 C 53 % 1022,4 hPa 0,0 l/m 12,0 km/h N 5,7 C 12,7 C 27,4 km/h
20.09.2012 14:00 14,9 C 54 % 1022,5 hPa 0,0 l/m 11,0 km/h N 5,6 C 12,6 C 24,9 km/h
20.09.2012 15:00 15,1 C 52 % 1022,4 hPa 0,0 l/m 9,8 km/h N 5,4 C 13,4 C 25,3 km/h
20.09.2012 16:00 14,7 C 53 % 1022,6 hPa 0,0 l/m 6,4 km/h N 5,2 C 14,5 C 18,5 km/h
20.09.2012 17:00 14,9 C 52 % 1022,7 hPa 0,0 l/m 6,6 km/h N 5,0 C 14,6 C 18,5 km/h
20.09.2012 18:00 14,5 C 52 % 1023,2 hPa 0,0 l/m 3,2 km/h N 4,7 C 14,5 C 11,3 km/h
20.09.2012 19:00 12,4 C 60 % 1023,6 hPa 0,0 l/m 0,0 km/h N 4,9 C 12,4 C 1,6 km/h
20.09.2012 20:00 10,1 C 71 % 1024,1 hPa 0,0 l/m 0,0 km/h N 5,0 C 10,1 C 0,4 km/h
20.09.2012 21:00 8,3 C 77 % 1024,2 hPa 0,0 l/m 0,0 km/h N 4,6 C 8,3 C 0,0 km/h
20.09.2012 22:00 7,2 C 80 % 1024,3 hPa 0,0 l/m 0,0 km/h N 4,1 C 7,2 C 0,4 km/h
20.09.2012 23:00 7,0 C 83 % 1024,3 hPa 0,0 l/m 0,0 km/h N 4,2 C 7,0 C 2,0 km/h
21.09.2012 00:00 7,0 C 82 % 1024,3 hPa 0,0 l/m 0,1 km/h N 4,2 C 7,0 C 2,0 km/h
21.09.2012 01:00 6,6 C 82 % 1024,5 hPa 0,0 l/m 0,2 km/h N 3,8 C 6,6 C 2,4 km/h
21.09.2012 02:00 6,1 C 83 % 1024,4 hPa 0,0 l/m 0,0 km/h N 3,4 C 6,1 C 0,0 km/h
21.09.2012 03:00 5,7 C 83 % 1024,1 hPa 0,0 l/m 0,2 km/h N 3,0 C 5,7 C 2,8 km/h
21.09.2012 04:00 5,0 C 83 % 1024,0 hPa 0,0 l/m 0,1 km/h N 2,4 C 5,0 C 1,2 km/h
21.09.2012 05:00 4,3 C 84 % 1023,8 hPa 0,0 l/m 0,1 km/h N 1,8 C 4,3 C 1,2 km/h
21.09.2012 06:00 3,8 C 84 % 1023,6 hPa 0,0 l/m 0,1 km/h N 1,3 C 3,8 C 1,6 km/h
21.09.2012 07:00 3,8 C 83 % 1023,7 hPa 0,0 l/m 0,0 km/h N 1,2 C 3,8 C 0,8 km/h
21.09.2012 08:00 5,8 C 81 % 1023,6 hPa 0,0 l/m 0,1 km/h N 2,8 C 5,8 C 1,6 km/h
21.09.2012 09:00 9,1 C 82 % 1023,6 hPa 0,0 l/m 0,5 km/h N 6,1 C 9,1 C 4,4 km/h
21.09.2012 10:00 12,0 C 73 % 1023,3 hPa 0,0 l/m 1,0 km/h N 7,2 C 12,0 C 7,3 km/h
21.09.2012 11:00 14,0 C 65 % 1023,0 hPa 0,0 l/m 2,5 km/h N 7,5 C 14,0 C 10,1 km/h
21.09.2012 12:00 16,2 C 55 % 1022,3 hPa 0,0 l/m 5,2 km/h N 7,2 C 16,2 C 19,3 km/h
21.09.2012 13:00 16,5 C 55 % 1021,4 hPa 0,0 l/m 6,0 km/h N 7,3 C 16,4 C 17,3 km/h
21.09.2012 14:00 17,9 C 50 % 1020,7 hPa 0,0 l/m 5,2 km/h N 7,1 C 17,9 C 16,1 km/h
21.09.2012 15:00 18,1 C 46 % 1019,8 hPa 0,0 l/m 4,7 km/h N 6,3 C 18,1 C 15,3 km/h
21.09.2012 16:00 18,1 C 46 % 1019,2 hPa 0,0 l/m 4,3 km/h N 6,2 C 18,1 C 16,1 km/h
21.09.2012 17:00 17,9 C 48 % 1018,7 hPa 0,0 l/m 4,6 km/h N 6,6 C 17,9 C 12,9 km/h
21.09.2012 18:00 17,2 C 52 % 1018,3 hPa 0,0 l/m 2,9 km/h N 7,1 C 17,2 C 11,3 km/h
21.09.2012 19:00 15,5 C 59 % 1017,9 hPa 0,0 l/m 0,4 km/h N 7,4 C 15,5 C 4,8 km/h
21.09.2012 20:00 13,3 C 65 % 1017,6 hPa 0,0 l/m 0,0 km/h N 6,9 C 13,3 C 0,0 km/h
21.09.2012 21:00 10,9 C 75 % 1016,9 hPa 0,0 l/m 0,0 km/h N 6,7 C 10,9 C 0,8 km/h
21.09.2012 22:00 10,4 C 79 % 1016,1 hPa 0,0 l/m 0,1 km/h N 7,0 C 10,4 C 2,4 km/h
21.09.2012 23:00 10,2 C 80 % 1015,2 hPa 0,0 l/m 0,3 km/h N 6,8 C 10,2 C 3,6 km/h
22.09.2012 00:00 9,4 C 80 % 1014,3 hPa 0,0 l/m 0,0 km/h N 6,1 C 9,4 C 0,0 km/h
22.09.2012 01:00 8,8 C 83 % 1013,5 hPa 0,0 l/m 0,0 km/h N 6,0 C 8,8 C 0,0 km/h
22.09.2012 02:00 8,5 C 83 % 1012,9 hPa 0,0 l/m 0,0 km/h N 5,7 C 8,5 C 0,4 km/h
22.09.2012 03:00 7,7 C 83 % 1011,8 hPa 0,0 l/m 0,0 km/h N 5,0 C 7,7 C 0,0 km/h
22.09.2012 04:00 7,1 C 83 % 1011,3 hPa 0,0 l/m 0,0 km/h N 4,4 C 7,1 C 0,0 km/h
22.09.2012 05:00 7,3 C 82 % 1011,2 hPa 0,0 l/m 0,1 km/h N 4,4 C 7,3 C 1,2 km/h
22.09.2012 06:00 8,3 C 81 % 1011,2 hPa 0,0 l/m 0,4 km/h N 5,2 C 8,3 C 4,0 km/h
22.09.2012 07:00 8,9 C 82 % 1012,3 hPa 0,0 l/m 1,3 km/h N 6,0 C 8,9 C 7,2 km/h
22.09.2012 08:00 10,1 C 83 % 1013,0 hPa 0,0 l/m 1,9 km/h N 7,3 C 10,1 C 6,8 km/h
22.09.2012 09:00 11,0 C 81 % 1013,3 hPa 0,0 l/m 1,6 km/h N 7,8 C 11,0 C 6,4 km/h
22.09.2012 10:00 11,7 C 79 % 1013,5 hPa 0,0 l/m 1,0 km/h N 8,1 C 11,7 C 4,4 km/h
22.09.2012 11:00 12,6 C 77 % 1013,4 hPa 0,0 l/m 1,6 km/h N 8,7 C 12,6 C 7,6 km/h
22.09.2012 12:00 13,8 C 74 % 1013,7 hPa 0,0 l/m 2,4 km/h N 9,1 C 13,8 C 7,6 km/h
22.09.2012 13:00 14,3 C 72 % 1013,6 hPa 0,0 l/m 4,9 km/h N 9,3 C 14,3 C 13,7 km/h
22.09.2012 14:00 14,6 C 73 % 1013,5 hPa 0,0 l/m 6,8 km/h N 9,9 C 14,3 C 15,3 km/h
22.09.2012 15:00 15,5 C 70 % 1013,6 hPa 0,0 l/m 4,0 km/h N 10,1 C 15,5 C 12,9 km/h
22.09.2012 16:00 16,3 C 71 % 1013,9 hPa 0,0 l/m 2,7 km/h N 11,0 C 16,3 C 10,5 km/h
22.09.2012 17:00 16,7 C 71 % 1014,0 hPa 0,0 l/m 2,6 km/h N 11,3 C 16,7 C 8,9 km/h
22.09.2012 18:00 16,6 C 74 % 1014,5 hPa 0,0 l/m 0,2 km/h N 11,9 C 16,6 C 3,2 km/h
22.09.2012 19:00 15,6 C 80 % 1015,4 hPa 0,0 l/m 0,1 km/h N 12,1 C 15,6 C 2,8 km/h
22.09.2012 20:00 15,4 C 82 % 1016,6 hPa 0,8 l/m 6,2 km/h N 12,2 C 15,0 C 18,5 km/h
22.09.2012 21:00 14,2 C 81 % 1017,7 hPa 0,3 l/m 8,1 km/h N 11,0 C 13,2 C 20,5 km/h
22.09.2012 22:00 13,9 C 79 % 1018,2 hPa 0,0 l/m 9,5 km/h N 10,3 C 12,2 C 22,5 km/h
22.09.2012 23:00 13,6 C 79 % 1018,8 hPa 0,0 l/m 6,3 km/h N 10,1 C 13,3 C 19,7 km/h
23.09.2012 00:00 13,0 C 80 % 1019,5 hPa 0,0 l/m 3,2 km/h N 9,6 C 13,0 C 11,7 km/h
23.09.2012 01:00 12,4 C 80 % 1020,0 hPa 0,0 l/m 2,4 km/h N 9,1 C 12,4 C 7,6 km/h
23.09.2012 02:00 11,4 C 83 % 1019,9 hPa 0,0 l/m 1,7 km/h N 8,5 C 11,4 C 7,6 km/h
23.09.2012 03:00 10,8 C 83 % 1019,9 hPa 0,0 l/m 0,1 km/h N 8,0 C 10,8 C 1,6 km/h
23.09.2012 04:00 10,6 C 83 % 1019,6 hPa 0,0 l/m 0,4 km/h N 7,8 C 10,6 C 4,4 km/h
23.09.2012 05:00 10,8 C 83 % 1019,4 hPa 0,0 l/m 0,0 km/h N 8,0 C 10,8 C 0,8 km/h
23.09.2012 06:00 10,7 C 83 % 1019,6 hPa 0,0 l/m 0,0 km/h N 7,9 C 10,7 C 0,0 km/h
23.09.2012 07:00 10,9 C 82 % 1019,8 hPa 0,0 l/m 0,0 km/h N 8,0 C 10,9 C 0,8 km/h
23.09.2012 08:00 11,5 C 83 % 1020,1 hPa 0,0 l/m 2,7 km/h N 8,7 C 11,5 C 6,8 km/h
23.09.2012 09:00 12,2 C 83 % 1020,1 hPa 0,0 l/m 0,3 km/h N 9,4 C 12,2 C 3,6 km/h
23.09.2012 10:00 12,6 C 80 % 1019,9 hPa 0,0 l/m 1,0 km/h N 9,1 C 12,6 C 6,0 km/h
23.09.2012 11:00 13,2 C 74 % 1019,7 hPa 0,0 l/m 0,5 km/h N 8,5 C 13,2 C 6,0 km/h
23.09.2012 12:00 14,4 C 65 % 1019,2 hPa 0,0 l/m 1,3 km/h N 8,0 C 14,4 C 8,8 km/h
23.09.2012 13:00 15,0 C 63 % 1018,3 hPa 0,0 l/m 1,4 km/h N 8,1 C 15,0 C 8,9 km/h
23.09.2012 14:00 15,5 C 63 % 1017,5 hPa 0,0 l/m 1,9 km/h N 8,5 C 15,5 C 8,0 km/h
23.09.2012 15:00 15,8 C 64 % 1016,7 hPa 0,0 l/m 2,5 km/h N 8,9 C 15,8 C 10,9 km/h
23.09.2012 16:00 16,1 C 61 % 1015,7 hPa 0,0 l/m 2,8 km/h N 8,6 C 16,1 C 10,9 km/h
23.09.2012 17:00 16,2 C 60 % 1015,1 hPa 0,0 l/m 1,9 km/h N 8,4 C 16,2 C 8,1 km/h
23.09.2012 18:00 15,9 C 61 % 1014,8 hPa 0,0 l/m 0,9 km/h N 8,4 C 15,9 C 7,2 km/h
23.09.2012 19:00 14,3 C 68 % 1014,6 hPa 0,0 l/m 0,0 km/h N 8,4 C 14,3 C 0,0 km/h
23.09.2012 20:00 12,8 C 75 % 1014,5 hPa 0,0 l/m 0,5 km/h N 8,4 C 12,8 C 4,0 km/h
23.09.2012 21:00 11,9 C 76 % 1013,8 hPa 0,0 l/m 0,0 km/h N 7,8 C 11,9 C 0,4 km/h
23.09.2012 22:00 10,5 C 80 % 1013,1 hPa 0,0 l/m 0,0 km/h N 7,1 C 10,5 C 0,0 km/h
23.09.2012 23:00 9,4 C 82 % 1012,3 hPa 0,0 l/m 0,0 km/h N 6,5 C 9,4 C 0,0 km/h
Min-Datum _ 21.09.12 17.09.12 19.09.12 - 17.09.12 - 21.09.12 21.09.12 17.09.12
_ Min-Zeit 06:45 13:15 05:45 - 00:00 - 06:45 06:45 00:00
Minimum _ 3,6 C 44 % 1008,1 hPa - 0,0 km/h - 1,2 C 3,6 C 0,0 km/h
Max-Datum _ 18.09.12 21.09.12 21.09.12 19.09.12 20.09.12 - 18.09.12 18.09.12 20.09.12
_ Max-Zeit 14:30 04:15 01:00 12:15 08:45 - 13:15 14:30 08:45
Maximum _ 25,9 C 84 % 1024,5 hPa 1,3 l/m 14,7 km/h
N
- 15,9 C 25,8 C 33,8 km/h
N
Durchschnitt _ 13,6 C 73 % 1016,6 hPa #3,9 l/m 3,0 km/h N 8,5 C 13,3 C 9,1 km/h